createdAt,value
2018-11-07T00:01:05.775Z,10.00
2018-11-07T00:03:33.200Z,10.10
2018-11-07T00:06:00.603Z,10.10
2018-11-07T00:08:28.203Z,10.20
2018-11-07T00:10:55.639Z,10.10
2018-11-07T00:13:23.077Z,10.00
2018-11-07T00:15:50.510Z,10.10
2018-11-07T00:18:17.944Z,10.00
2018-11-07T00:20:45.325Z,10.10
2018-11-07T00:23:12.787Z,10.20
2018-11-07T00:25:40.183Z,10.00
2018-11-07T00:28:07.577Z,10.00
2018-11-07T00:30:35.229Z,10.00
2018-11-07T00:33:02.699Z,10.00
2018-11-07T00:35:30.146Z,9.90
2018-11-07T00:37:57.593Z,9.80
2018-11-07T00:40:25.156Z,9.80
2018-11-07T00:42:52.570Z,9.80
2018-11-07T00:45:19.997Z,9.70
2018-11-07T00:47:47.504Z,9.70
2018-11-07T00:50:16.041Z,9.70
2018-11-07T00:52:44.004Z,9.60
2018-11-07T00:55:12.194Z,9.70
2018-11-07T00:57:39.615Z,9.70
2018-11-07T01:00:10.357Z,9.70
2018-11-07T01:02:37.799Z,9.60
2018-11-07T01:05:06.660Z,9.70
2018-11-07T01:07:34.102Z,9.70
2018-11-07T01:10:01.668Z,9.80
2018-11-07T01:12:29.316Z,9.70
2018-11-07T01:14:56.789Z,9.60
2018-11-07T01:17:24.302Z,9.50
2018-11-07T01:19:51.735Z,9.40
2018-11-07T01:22:19.322Z,9.40
2018-11-07T01:24:46.779Z,9.30
2018-11-07T01:27:14.378Z,9.40
2018-11-07T01:29:41.895Z,9.40
2018-11-07T01:32:09.366Z,9.40
2018-11-07T01:34:36.762Z,9.30
2018-11-07T01:37:04.360Z,9.30
2018-11-07T01:39:31.981Z,9.20
2018-11-07T01:41:59.433Z,9.20
2018-11-07T01:44:26.851Z,9.10
2018-11-07T01:46:54.256Z,9.20
2018-11-07T01:49:21.681Z,9.20
2018-11-07T01:51:49.270Z,9.20
2018-11-07T01:54:16.683Z,9.10
2018-11-07T01:56:44.077Z,9.20
2018-11-07T01:59:11.512Z,9.30
2018-11-07T02:01:39.017Z,9.20
2018-11-07T02:04:06.568Z,9.30
2018-11-07T02:06:34.137Z,9.20
2018-11-07T02:09:01.593Z,9.20
2018-11-07T02:11:29.032Z,9.20
2018-11-07T02:13:56.459Z,9.20
2018-11-07T02:16:23.935Z,9.10
2018-11-07T02:18:51.330Z,9.20
2018-11-07T02:21:18.805Z,9.00
2018-11-07T02:23:46.246Z,8.90
2018-11-07T02:26:13.692Z,9.00
2018-11-07T02:28:41.099Z,9.10
2018-11-07T02:31:08.602Z,9.10
2018-11-07T02:33:36.037Z,9.20
2018-11-07T02:36:03.515Z,9.30
2018-11-07T02:38:31.079Z,9.30
2018-11-07T02:40:58.544Z,9.40
2018-11-07T02:43:25.936Z,9.30
2018-11-07T02:45:53.351Z,9.20
2018-11-07T02:48:20.788Z,9.20
2018-11-07T02:50:48.275Z,9.20
2018-11-07T02:53:15.827Z,9.10
2018-11-07T02:55:43.257Z,9.00
2018-11-07T02:58:10.771Z,9.00
2018-11-07T03:00:38.221Z,9.00
2018-11-07T03:03:05.696Z,9.00
2018-11-07T03:05:33.372Z,9.30
2018-11-07T03:08:00.869Z,9.20
2018-11-07T03:10:28.386Z,9.10
2018-11-07T03:12:55.785Z,9.10
2018-11-07T03:15:23.283Z,9.00
2018-11-07T03:17:50.690Z,9.00
2018-11-07T03:20:18.128Z,9.20
2018-11-07T03:22:45.577Z,8.90
2018-11-07T03:25:13.028Z,9.00
2018-11-07T03:27:40.513Z,9.20
2018-11-07T03:30:08.527Z,9.10
2018-11-07T03:32:35.994Z,9.10
2018-11-07T03:35:14.419Z,9.00
2018-11-07T03:37:41.852Z,9.00
2018-11-07T03:40:09.308Z,9.10
2018-11-07T03:42:36.729Z,9.20
2018-11-07T03:45:04.658Z,9.10
2018-11-07T03:47:32.075Z,9.20
2018-11-07T03:49:59.477Z,8.90
2018-11-07T03:52:26.916Z,8.80
2018-11-07T03:54:54.335Z,8.80
2018-11-07T03:57:21.791Z,8.80
2018-11-07T03:59:49.323Z,8.90
2018-11-07T04:02:16.700Z,8.90
2018-11-07T04:04:44.147Z,8.80
2018-11-07T04:07:11.576Z,8.70
2018-11-07T04:09:39.048Z,9.00
2018-11-07T04:12:06.486Z,8.80
2018-11-07T04:14:33.922Z,8.70
2018-11-07T04:17:01.355Z,8.70
2018-11-07T04:19:28.804Z,8.70
2018-11-07T04:21:56.199Z,8.70
2018-11-07T04:24:23.644Z,8.70
2018-11-07T04:26:51.057Z,8.60
2018-11-07T04:29:18.474Z,8.60
2018-11-07T04:31:45.968Z,8.70
2018-11-07T04:34:13.363Z,8.60
2018-11-07T04:36:41.692Z,8.60
2018-11-07T04:39:09.154Z,8.50
2018-11-07T04:41:36.634Z,8.50
2018-11-07T04:44:04.349Z,8.50
2018-11-07T04:46:31.770Z,8.70
2018-11-07T04:48:59.202Z,8.70
2018-11-07T04:51:26.625Z,8.70
2018-11-07T04:53:54.026Z,8.60
2018-11-07T04:56:21.435Z,8.50
2018-11-07T04:58:48.929Z,8.50
2018-11-07T05:01:16.402Z,8.50
2018-11-07T05:03:43.814Z,8.50
2018-11-07T05:06:11.194Z,8.40
2018-11-07T05:08:38.681Z,8.50
2018-11-07T05:11:06.172Z,8.40
2018-11-07T05:13:33.795Z,8.40
2018-11-07T05:16:01.264Z,8.40
2018-11-07T05:18:28.686Z,8.40
2018-11-07T05:20:56.096Z,8.40
2018-11-07T05:23:23.510Z,8.40
2018-11-07T05:25:50.946Z,8.30
2018-11-07T05:28:19.215Z,8.30
2018-11-07T05:30:46.642Z,8.40
2018-11-07T05:33:14.019Z,8.40
2018-11-07T05:35:41.459Z,8.20
2018-11-07T05:38:08.852Z,8.10
2018-11-07T05:40:36.298Z,8.20
2018-11-07T05:43:03.752Z,8.20
2018-11-07T05:45:31.194Z,8.30
2018-11-07T05:47:58.583Z,8.40
2018-11-07T05:50:26.121Z,8.30
2018-11-07T05:52:53.496Z,8.30
2018-11-07T05:55:21.036Z,8.30
2018-11-07T05:57:48.551Z,8.30
2018-11-07T06:00:16.024Z,8.40
2018-11-07T06:02:43.440Z,8.40
2018-11-07T06:05:11.607Z,8.40
2018-11-07T06:07:39.539Z,8.30
2018-11-07T06:10:09.056Z,8.30
2018-11-07T06:12:36.995Z,8.50
2018-11-07T06:15:05.723Z,8.50
2018-11-07T06:17:33.179Z,8.40
2018-11-07T06:20:00.724Z,8.40
2018-11-07T06:22:28.115Z,8.40
2018-11-07T06:24:55.603Z,8.50
2018-11-07T06:27:22.993Z,8.60
2018-11-07T06:29:50.410Z,8.40
2018-11-07T06:32:17.827Z,8.40
2018-11-07T06:34:45.250Z,8.60
2018-11-07T06:37:12.650Z,8.50
2018-11-07T06:39:41.497Z,8.40
2018-11-07T06:42:08.908Z,8.50
2018-11-07T06:44:36.332Z,8.50
2018-11-07T06:47:03.987Z,8.50
2018-11-07T06:49:31.435Z,8.50
2018-11-07T06:51:58.856Z,8.50
2018-11-07T06:54:26.251Z,8.60
2018-11-07T06:56:53.801Z,8.50
2018-11-07T06:59:21.194Z,8.60
2018-11-07T07:01:48.636Z,8.50
2018-11-07T07:04:16.016Z,8.40
2018-11-07T07:06:43.499Z,8.60
2018-11-07T07:11:44.713Z,8.60
2018-11-07T07:14:12.092Z,8.50
2018-11-07T07:16:39.527Z,8.50
2018-11-07T07:19:06.945Z,8.40
2018-11-07T07:21:34.342Z,8.50
2018-11-07T07:24:02.082Z,8.60
2018-11-07T07:26:29.664Z,8.60
2018-11-07T07:28:57.058Z,8.60
2018-11-07T07:31:24.470Z,8.50
2018-11-07T07:33:55.700Z,8.40
2018-11-07T07:36:23.229Z,8.50
2018-11-07T07:38:50.706Z,8.50
2018-11-07T07:41:18.123Z,8.50
2018-11-07T07:43:45.503Z,8.60
2018-11-07T07:46:12.943Z,8.60
2018-11-07T07:48:40.987Z,8.70
2018-11-07T07:51:08.484Z,8.60
2018-11-07T07:53:35.898Z,8.70
2018-11-07T07:56:03.315Z,8.70
2018-11-07T07:58:30.860Z,8.60
2018-11-07T08:00:58.314Z,8.70
2018-11-07T08:03:25.792Z,8.70
2018-11-07T08:05:53.199Z,8.70
2018-11-07T08:08:20.611Z,8.70
2018-11-07T08:10:48.059Z,8.60
2018-11-07T08:13:15.543Z,8.60
2018-11-07T08:15:42.944Z,8.60
2018-11-07T08:18:10.352Z,8.50
2018-11-07T08:20:37.766Z,8.50
2018-11-07T08:23:07.739Z,8.60
2018-11-07T08:25:35.181Z,8.70
2018-11-07T08:28:02.579Z,8.60
2018-11-07T08:30:29.983Z,8.50
2018-11-07T08:32:57.411Z,8.60
2018-11-07T08:35:24.821Z,8.70
2018-11-07T08:37:52.298Z,8.60
2018-11-07T08:40:21.220Z,8.60
2018-11-07T08:42:48.815Z,8.60
2018-11-07T08:45:16.211Z,8.60
2018-11-07T08:47:44.434Z,8.60
2018-11-07T08:50:13.808Z,8.70
2018-11-07T08:52:41.815Z,8.70
2018-11-07T08:55:11.147Z,8.80
2018-11-07T08:57:38.783Z,9.00
2018-11-07T09:00:12.496Z,8.90
2018-11-07T09:02:40.895Z,8.90
2018-11-07T09:05:08.792Z,9.10
2018-11-07T09:07:36.371Z,9.20
2018-11-07T09:10:05.035Z,9.20
2018-11-07T09:12:32.464Z,9.20
2018-11-07T09:14:59.885Z,9.20
2018-11-07T09:17:27.334Z,9.10
2018-11-07T09:19:54.767Z,9.10
2018-11-07T09:22:22.453Z,9.20
2018-11-07T09:24:49.876Z,9.10
2018-11-07T09:27:17.309Z,9.20
2018-11-07T09:29:44.720Z,9.20
2018-11-07T09:32:12.145Z,9.30
2018-11-07T09:34:39.556Z,9.60
2018-11-07T09:37:06.990Z,9.60
2018-11-07T09:39:34.448Z,9.60
2018-11-07T09:42:01.850Z,9.50
2018-11-07T09:44:29.279Z,9.60
2018-11-07T09:46:56.935Z,9.70
2018-11-07T09:49:24.353Z,9.70
2018-11-07T09:51:54.342Z,9.70
2018-11-07T09:54:21.867Z,9.90
2018-11-07T09:56:49.232Z,9.80
2018-11-07T09:59:16.629Z,9.80
2018-11-07T10:01:44.059Z,9.90
2018-11-07T10:04:11.491Z,10.00
2018-11-07T10:06:38.957Z,9.90
2018-11-07T10:09:08.308Z,9.80
2018-11-07T10:11:35.815Z,9.80
2018-11-07T10:14:06.918Z,9.80
2018-11-07T10:16:34.339Z,10.00
2018-11-07T10:19:01.791Z,10.10
2018-11-07T10:21:29.215Z,10.10
2018-11-07T10:23:56.691Z,10.20
2018-11-07T10:26:24.106Z,10.10
2018-11-07T10:28:51.857Z,10.20
2018-11-07T10:31:19.046Z,10.20
2018-11-07T10:33:46.483Z,10.40
2018-11-07T10:36:13.863Z,10.50
2018-11-07T10:38:41.492Z,10.40
2018-11-07T10:41:08.880Z,10.50
2018-11-07T10:43:36.354Z,10.70
2018-11-07T10:46:04.136Z,10.70
2018-11-07T10:48:31.664Z,10.90
2018-11-07T10:50:59.068Z,11.00
2018-11-07T10:53:26.493Z,10.90
2018-11-07T10:55:53.908Z,10.90
2018-11-07T10:58:21.335Z,10.80
2018-11-07T11:00:54.420Z,10.60
2018-11-07T11:03:29.387Z,10.90
2018-11-07T11:05:56.824Z,10.90
2018-11-07T11:08:24.250Z,10.80
2018-11-07T11:10:52.522Z,10.90
2018-11-07T11:13:20.092Z,11.10
2018-11-07T11:15:47.570Z,11.10
2018-11-07T11:18:15.070Z,10.90
2018-11-07T11:20:42.690Z,10.90
2018-11-07T11:23:10.251Z,11.00
2018-11-07T11:25:37.664Z,11.00
2018-11-07T11:28:05.157Z,10.90
2018-11-07T11:30:32.583Z,10.90
2018-11-07T11:33:00.104Z,10.90
2018-11-07T11:35:27.595Z,11.00
2018-11-07T11:37:55.048Z,11.20
2018-11-07T11:40:22.483Z,11.10
2018-11-07T11:42:49.918Z,11.00
2018-11-07T11:45:17.442Z,11.10
2018-11-07T11:47:45.224Z,11.10
2018-11-07T11:50:14.619Z,11.20
2018-11-07T11:52:43.200Z,11.50
2018-11-07T11:55:11.087Z,11.70
2018-11-07T11:57:38.712Z,11.60
2018-11-07T12:00:20.745Z,11.40
2018-11-07T12:02:49.062Z,11.40
2018-11-07T12:05:17.415Z,11.40
2018-11-07T12:07:44.888Z,11.40
2018-11-07T12:10:16.535Z,11.40
2018-11-07T12:12:45.883Z,11.60
2018-11-07T12:15:13.907Z,11.70
2018-11-07T12:17:41.676Z,11.60
2018-11-07T12:20:09.709Z,11.60
2018-11-07T12:22:37.176Z,11.60
2018-11-07T12:25:05.908Z,11.60
2018-11-07T12:27:33.522Z,11.70
2018-11-07T12:30:00.955Z,11.80
2018-11-07T12:32:28.378Z,11.80
2018-11-07T12:34:55.871Z,11.80
2018-11-07T12:37:23.291Z,11.90
2018-11-07T12:39:51.163Z,12.20
2018-11-07T12:42:18.710Z,12.10
2018-11-07T12:44:46.167Z,12.40
2018-11-07T12:47:13.578Z,12.40
2018-11-07T12:49:41.040Z,12.50
2018-11-07T12:52:08.547Z,12.70
2018-11-07T12:54:36.154Z,13.10
2018-11-07T12:57:03.753Z,13.30
2018-11-07T12:59:31.155Z,13.50
2018-11-07T13:01:58.598Z,13.30
2018-11-07T13:04:26.115Z,13.70
2018-11-07T13:06:53.639Z,13.90
2018-11-07T13:09:21.222Z,13.90
2018-11-07T13:11:48.767Z,14.50
2018-11-07T13:14:16.266Z,14.50
2018-11-07T13:16:43.749Z,14.70
2018-11-07T13:19:11.232Z,15.00
2018-11-07T13:21:38.638Z,15.40
2018-11-07T13:24:06.083Z,15.50
2018-11-07T13:26:33.515Z,15.60
2018-11-07T13:29:01.054Z,15.50
2018-11-07T13:31:28.481Z,15.20
2018-11-07T13:33:55.932Z,15.00
2018-11-07T13:36:23.362Z,15.00
2018-11-07T13:38:51.143Z,15.30
2018-11-07T13:41:18.210Z,15.60
2018-11-07T13:43:45.638Z,15.60
2018-11-07T13:46:13.075Z,16.10
2018-11-07T13:48:40.728Z,16.00
2018-11-07T13:51:08.151Z,15.90
2018-11-07T13:53:35.569Z,15.50
2018-11-07T13:56:03.055Z,15.60
2018-11-07T13:58:30.475Z,15.90
2018-11-07T14:00:58.246Z,16.10
2018-11-07T14:03:25.700Z,16.40
2018-11-07T14:05:53.204Z,16.10
2018-11-07T14:08:21.023Z,16.00
2018-11-07T14:10:48.483Z,15.80
2018-11-07T14:13:15.996Z,15.90
2018-11-07T14:15:43.532Z,16.10
2018-11-07T14:18:10.939Z,16.20
2018-11-07T14:20:38.450Z,16.30
2018-11-07T14:23:05.884Z,16.10
2018-11-07T14:25:33.430Z,15.90
2018-11-07T14:28:01.075Z,15.90
2018-11-07T14:30:28.408Z,15.70
2018-11-07T14:32:57.169Z,15.80
2018-11-07T14:35:24.746Z,15.50
2018-11-07T14:37:53.003Z,15.40
2018-11-07T14:40:20.580Z,15.00
2018-11-07T14:42:47.975Z,15.00
2018-11-07T14:45:15.493Z,14.80
2018-11-07T14:47:43.070Z,14.70
2018-11-07T14:50:11.347Z,14.60
2018-11-07T14:52:38.960Z,13.90
2018-11-07T14:55:06.854Z,13.80
2018-11-07T14:57:34.796Z,13.20
2018-11-07T15:00:02.564Z,12.50
2018-11-07T15:02:30.011Z,12.60
2018-11-07T15:04:57.443Z,12.40
2018-11-07T15:07:24.872Z,12.30
2018-11-07T15:09:52.323Z,12.20
2018-11-07T15:12:19.878Z,11.90
2018-11-07T15:14:47.275Z,11.90
2018-11-07T15:17:14.719Z,11.90
2018-11-07T15:19:42.164Z,11.90
2018-11-07T15:22:09.591Z,11.60
2018-11-07T15:24:36.996Z,11.60
2018-11-07T15:27:04.663Z,11.30
2018-11-07T15:29:32.070Z,11.40
2018-11-07T15:31:59.534Z,11.40
2018-11-07T15:34:27.095Z,11.10
2018-11-07T15:36:54.545Z,11.10
2018-11-07T15:39:21.984Z,11.20
2018-11-07T15:41:49.421Z,11.20
2018-11-07T15:44:16.914Z,11.10
2018-11-07T15:46:44.423Z,11.10
2018-11-07T15:49:11.880Z,11.10
2018-11-07T15:51:39.792Z,10.80
2018-11-07T15:54:07.617Z,10.70
2018-11-07T15:56:35.411Z,10.70
2018-11-07T15:59:03.134Z,10.80
2018-11-07T16:01:30.839Z,10.80
2018-11-07T16:03:59.545Z,10.70
2018-11-07T16:06:27.305Z,10.80
2018-11-07T16:08:56.217Z,10.70
2018-11-07T16:11:24.258Z,10.80
2018-11-07T16:13:51.971Z,10.70
2018-11-07T16:16:19.350Z,10.70
2018-11-07T16:18:46.802Z,10.60
2018-11-07T16:21:14.221Z,10.60
2018-11-07T16:23:41.628Z,10.80
2018-11-07T16:26:09.188Z,10.70
2018-11-07T16:28:36.619Z,10.70
2018-11-07T16:31:04.355Z,10.60
2018-11-07T16:33:31.744Z,10.50
2018-11-07T16:35:59.178Z,10.60
2018-11-07T16:38:26.652Z,10.50
2018-11-07T16:40:54.132Z,10.50
2018-11-07T16:43:21.502Z,10.60
2018-11-07T16:45:48.943Z,10.50
2018-11-07T16:48:16.462Z,10.60
2018-11-07T16:50:43.984Z,10.80
2018-11-07T16:53:11.440Z,10.60
2018-11-07T16:55:38.895Z,10.60
2018-11-07T16:58:06.291Z,10.50
2018-11-07T17:00:35.027Z,10.40
2018-11-07T17:03:02.455Z,10.40
2018-11-07T17:05:29.888Z,10.50
2018-11-07T17:07:57.284Z,10.50
2018-11-07T17:10:24.749Z,10.40
2018-11-07T17:12:52.177Z,10.50
2018-11-07T17:15:19.635Z,10.60
2018-11-07T17:17:47.058Z,10.60
2018-11-07T17:20:15.116Z,10.50
2018-11-07T17:22:42.748Z,10.40
2018-11-07T17:25:12.491Z,10.40
2018-11-07T17:27:40.314Z,10.40
2018-11-07T17:30:08.738Z,10.30
2018-11-07T17:32:36.131Z,10.50
2018-11-07T17:35:03.827Z,10.50
2018-11-07T17:37:31.272Z,10.50
2018-11-07T17:39:58.782Z,10.40
2018-11-07T17:42:26.231Z,10.50
2018-11-07T17:44:53.643Z,10.40
2018-11-07T17:47:21.109Z,10.40
2018-11-07T17:49:48.522Z,10.50
2018-11-07T17:52:15.967Z,10.50
2018-11-07T17:54:43.367Z,10.30
2018-11-07T17:57:10.848Z,10.30
2018-11-07T17:59:38.258Z,10.30
2018-11-07T18:02:05.750Z,10.50
2018-11-07T18:04:33.163Z,10.40
2018-11-07T18:07:00.612Z,10.50
2018-11-07T18:09:28.036Z,10.30
2018-11-07T18:11:55.475Z,10.40
2018-11-07T18:14:22.879Z,10.40
2018-11-07T18:16:50.342Z,10.40
2018-11-07T18:19:17.847Z,10.40
2018-11-07T18:21:45.294Z,10.30
2018-11-07T18:24:12.703Z,10.40
2018-11-07T18:26:40.265Z,10.50
2018-11-07T18:29:08.184Z,10.50
2018-11-07T18:31:35.692Z,10.40
2018-11-07T18:34:03.146Z,10.50
2018-11-07T18:36:30.754Z,10.50
2018-11-07T18:38:58.168Z,10.30
2018-11-07T18:41:25.619Z,10.30
2018-11-07T18:43:53.104Z,10.40
2018-11-07T18:46:20.584Z,10.30
2018-11-07T18:48:48.159Z,10.20
2018-11-07T18:51:15.633Z,10.20
2018-11-07T18:53:43.823Z,10.20
2018-11-07T18:56:11.449Z,10.20
2018-11-07T18:58:39.102Z,10.20
2018-11-07T19:01:06.951Z,10.20
2018-11-07T19:03:34.639Z,10.20
2018-11-07T19:06:02.407Z,10.20
2018-11-07T19:08:29.830Z,10.20
2018-11-07T19:10:57.522Z,10.20
2018-11-07T19:13:25.388Z,10.20
2018-11-07T19:15:52.876Z,10.20
2018-11-07T19:18:20.426Z,10.20
2018-11-07T19:20:48.132Z,10.10
2018-11-07T19:23:15.768Z,10.10
2018-11-07T19:25:43.593Z,10.20
2018-11-07T19:28:11.518Z,10.20
2018-11-07T19:30:39.422Z,10.30
2018-11-07T19:33:08.749Z,10.20
2018-11-07T19:35:36.283Z,10.20
2018-11-07T19:38:03.728Z,10.10
2018-11-07T19:40:31.674Z,10.10
2018-11-07T19:42:59.963Z,10.10
2018-11-07T19:45:28.064Z,10.10
2018-11-07T19:47:55.825Z,10.10
2018-11-07T19:50:24.102Z,10.10
2018-11-07T19:52:52.376Z,10.10
2018-11-07T19:55:21.817Z,10.20
2018-11-07T19:57:51.895Z,10.20
2018-11-07T20:00:20.244Z,10.10
2018-11-07T20:02:47.937Z,10.10
2018-11-07T20:05:15.492Z,10.20
2018-11-07T20:07:43.251Z,10.10
2018-11-07T20:10:13.197Z,10.10
2018-11-07T20:12:40.751Z,10.10
2018-11-07T20:15:09.918Z,10.00
2018-11-07T20:17:37.666Z,10.00
2018-11-07T20:20:05.682Z,10.10
2018-11-07T20:22:33.900Z,10.10
2018-11-07T20:25:01.835Z,9.90
2018-11-07T20:27:29.778Z,9.90
2018-11-07T20:29:57.363Z,9.70
2018-11-07T20:32:24.899Z,9.70
2018-11-07T20:34:52.511Z,9.70
2018-11-07T20:37:19.992Z,9.60
2018-11-07T20:39:47.477Z,9.60
2018-11-07T20:42:14.903Z,9.70
2018-11-07T20:44:42.498Z,9.70
2018-11-07T20:47:10.211Z,9.70
2018-11-07T20:49:38.094Z,9.70
2018-11-07T20:52:05.880Z,9.80
2018-11-07T20:54:33.301Z,9.80
2018-11-07T20:57:00.738Z,9.70
2018-11-07T20:59:28.318Z,9.60
2018-11-07T21:01:55.778Z,9.70
2018-11-07T21:04:23.215Z,9.50
2018-11-07T21:06:50.816Z,9.60
2018-11-07T21:09:18.308Z,9.70
2018-11-07T21:11:46.048Z,9.60
2018-11-07T21:14:13.488Z,9.60
2018-11-07T21:16:41.110Z,9.50
2018-11-07T21:19:08.574Z,9.50
2018-11-07T21:21:35.999Z,9.40
2018-11-07T21:24:03.501Z,9.40
2018-11-07T21:26:30.992Z,9.30
2018-11-07T21:28:58.628Z,9.30
2018-11-07T21:31:26.029Z,9.20
2018-11-07T21:33:53.568Z,9.30
2018-11-07T21:36:21.038Z,9.30
2018-11-07T21:38:48.470Z,9.30
2018-11-07T21:41:15.871Z,9.30
2018-11-07T21:43:43.384Z,9.30
2018-11-07T21:46:10.770Z,9.20
2018-11-07T21:48:38.758Z,9.20
2018-11-07T21:51:06.282Z,9.10
2018-11-07T21:53:33.790Z,8.90
2018-11-07T21:56:01.266Z,8.90
2018-11-07T21:58:28.686Z,9.00
2018-11-07T22:00:56.081Z,8.90
2018-11-07T22:03:23.554Z,8.60
2018-11-07T22:05:50.953Z,8.50
2018-11-07T22:08:18.475Z,8.50
2018-11-07T22:10:45.869Z,8.60
2018-11-07T22:13:13.308Z,8.60
2018-11-07T22:15:40.744Z,8.80
2018-11-07T22:18:08.190Z,8.80
2018-11-07T22:20:35.637Z,8.80
2018-11-07T22:23:03.042Z,8.70
2018-11-07T22:25:30.478Z,8.70
2018-11-07T22:27:57.976Z,8.70
2018-11-07T22:30:25.587Z,8.60
2018-11-07T22:32:52.958Z,8.40
2018-11-07T22:35:20.355Z,8.30
2018-11-07T22:37:47.815Z,8.40
2018-11-07T22:40:16.439Z,8.50
2018-11-07T22:42:43.836Z,8.70
2018-11-07T22:45:11.998Z,8.90
2018-11-07T22:47:40.610Z,8.80
2018-11-07T22:50:09.790Z,8.80
2018-11-07T22:52:37.207Z,8.80
2018-11-07T22:55:05.581Z,8.90
2018-11-07T22:57:33.020Z,8.90
2018-11-07T23:00:00.416Z,9.00
2018-11-07T23:02:27.997Z,9.00
2018-11-07T23:04:55.468Z,8.90
2018-11-07T23:07:22.905Z,8.90
2018-11-07T23:09:50.356Z,9.00
2018-11-07T23:12:17.808Z,8.80
2018-11-07T23:14:45.212Z,8.80
2018-11-07T23:17:12.616Z,8.80
2018-11-07T23:19:40.032Z,8.90
2018-11-07T23:22:07.430Z,8.80
2018-11-07T23:24:34.891Z,8.80
2018-11-07T23:27:02.331Z,8.80
2018-11-07T23:29:29.815Z,8.80
2018-11-07T23:31:57.213Z,8.80
2018-11-07T23:34:24.665Z,8.80
2018-11-07T23:36:52.059Z,8.80
2018-11-07T23:39:19.512Z,8.80
2018-11-07T23:41:47.096Z,8.90
2018-11-07T23:44:14.489Z,8.90
2018-11-07T23:46:41.888Z,8.90
2018-11-07T23:49:09.351Z,8.90
2018-11-07T23:51:41.354Z,8.80
2018-11-07T23:54:09.119Z,8.90
2018-11-07T23:56:36.608Z,8.90
2018-11-07T23:59:04.407Z,9.00
